EGUN - Mildenhall Royal AFB
Distance from station: E 5mi, 14km
Updated: 02/19/2018 12:10am

 Wind from S
Wind: S 5 mph , 7 km/h
Visibility: 2 miles , 3 km
2018/02/19 08:10 EGUN 190810Z AUTO 18004KT 2800 M OVC008 06/06 A3000 RMK AO2 RAE10 CIG 006 RWY11 SLP163 $